sensor_id;sensor_type;location;lat;lon;timestamp;temperature;humidity
8226;DHT22;4154;48.810;9.012;2022-11-15T00:03:23;10.80;99.90
8226;DHT22;4154;48.810;9.012;2022-11-15T00:05:50;10.90;99.90
8226;DHT22;4154;48.810;9.012;2022-11-15T00:08:16;10.90;99.90
8226;DHT22;4154;48.810;9.012;2022-11-15T00:18:13;10.90;99.90
8226;DHT22;4154;48.810;9.012;2022-11-15T00:20:39;10.90;99.90
8226;DHT22;4154;48.810;9.012;2022-11-15T00:23:06;10.90;99.90
8226;DHT22;4154;48.810;9.012;2022-11-15T00:25:32;10.80;99.90
8226;DHT22;4154;48.810;9.012;2022-11-15T00:27:59;10.80;99.90
8226;DHT22;4154;48.810;9.012;2022-11-15T00:30:26;10.80;99.90
8226;DHT22;4154;48.810;9.012;2022-11-15T00:32:53;10.80;99.90
8226;DHT22;4154;48.810;9.012;2022-11-15T00:40:13;10.70;99.90
8226;DHT22;4154;48.810;9.012;2022-11-15T00:45:07;10.60;99.90
8226;DHT22;4154;48.810;9.012;2022-11-15T00:50:00;10.50;99.90
8226;DHT22;4154;48.810;9.012;2022-11-15T00:54:52;10.50;99.90
8226;DHT22;4154;48.810;9.012;2022-11-15T00:57:17;10.40;99.90
8226;DHT22;4154;48.810;9.012;2022-11-15T00:59:43;10.40;99.90
8226;DHT22;4154;48.810;9.012;2022-11-15T01:04:35;10.40;99.90
8226;DHT22;4154;48.810;9.012;2022-11-15T01:07:01;10.30;99.90
8226;DHT22;4154;48.810;9.012;2022-11-15T01:14:19;10.30;99.90
8226;DHT22;4154;48.810;9.012;2022-11-15T01:16:45;10.30;99.90
8226;DHT22;4154;48.810;9.012;2022-11-15T01:19:11;10.30;99.90
8226;DHT22;4154;48.810;9.012;2022-11-15T01:24:03;10.30;99.90
8226;DHT22;4154;48.810;9.012;2022-11-15T01:26:29;10.20;99.90
8226;DHT22;4154;48.810;9.012;2022-11-15T01:31:21;10.10;99.90
8226;DHT22;4154;48.810;9.012;2022-11-15T01:33:48;10.10;99.90
8226;DHT22;4154;48.810;9.012;2022-11-15T01:36:17;10.00;99.90
8226;DHT22;4154;48.810;9.012;2022-11-15T01:38:47;10.00;99.90
8226;DHT22;4154;48.810;9.012;2022-11-15T01:41:25;9.90;99.90
8226;DHT22;4154;48.810;9.012;2022-11-15T01:44:25;9.90;99.90
8226;DHT22;4154;48.810;9.012;2022-11-15T01:47:12;9.90;99.90
8226;DHT22;4154;48.810;9.012;2022-11-15T01:49:50;9.80;99.90
8226;DHT22;4154;48.810;9.012;2022-11-15T01:52:22;9.70;99.90
8226;DHT22;4154;48.810;9.012;2022-11-15T01:57:52;9.60;99.90
8226;DHT22;4154;48.810;9.012;2022-11-15T02:00:20;9.60;99.90
8226;DHT22;4154;48.810;9.012;2022-11-15T02:02:46;9.60;99.90
8226;DHT22;4154;48.810;9.012;2022-11-15T02:07:38;9.60;99.90
8226;DHT22;4154;48.810;9.012;2022-11-15T02:10:11;9.60;99.90
8226;DHT22;4154;48.810;9.012;2022-11-15T02:12:41;9.50;99.90
8226;DHT22;4154;48.810;9.012;2022-11-15T02:15:08;9.50;99.90
8226;DHT22;4154;48.810;9.012;2022-11-15T02:30:23;9.50;99.90
8226;DHT22;4154;48.810;9.012;2022-11-15T02:33:16;9.50;99.90
8226;DHT22;4154;48.810;9.012;2022-11-15T02:39:10;9.50;99.90
8226;DHT22;4154;48.810;9.012;2022-11-15T02:42:00;9.50;99.90
8226;DHT22;4154;48.810;9.012;2022-11-15T02:44:37;9.50;99.90
8226;DHT22;4154;48.810;9.012;2022-11-15T02:47:12;9.50;99.90
8226;DHT22;4154;48.810;9.012;2022-11-15T02:49:48;9.50;99.90
8226;DHT22;4154;48.810;9.012;2022-11-15T02:52:24;9.50;99.90
8226;DHT22;4154;48.810;9.012;2022-11-15T02:55:00;9.40;99.90
8226;DHT22;4154;48.810;9.012;2022-11-15T02:57:45;9.40;99.90
8226;DHT22;4154;48.810;9.012;2022-11-15T03:00:19;9.40;99.90
8226;DHT22;4154;48.810;9.012;2022-11-15T03:03:14;9.50;99.90
8226;DHT22;4154;48.810;9.012;2022-11-15T03:11:23;9.50;99.90
8226;DHT22;4154;48.810;9.012;2022-11-15T03:19:54;9.50;99.90
8226;DHT22;4154;48.810;9.012;2022-11-15T03:22:26;9.50;99.90
8226;DHT22;4154;48.810;9.012;2022-11-15T03:24:58;9.50;99.90
8226;DHT22;4154;48.810;9.012;2022-11-15T03:27:33;9.50;99.90
8226;DHT22;4154;48.810;9.012;2022-11-15T03:30:07;9.60;99.90
8226;DHT22;4154;48.810;9.012;2022-11-15T03:32:40;9.60;99.90
8226;DHT22;4154;48.810;9.012;2022-11-15T03:35:21;9.60;99.90
8226;DHT22;4154;48.810;9.012;2022-11-15T03:40:16;9.60;99.90
8226;DHT22;4154;48.810;9.012;2022-11-15T03:45:25;9.60;99.90
8226;DHT22;4154;48.810;9.012;2022-11-15T03:48:05;9.60;99.90
8226;DHT22;4154;48.810;9.012;2022-11-15T03:53:03;9.60;99.90
8226;DHT22;4154;48.810;9.012;2022-11-15T03:55:32;9.60;99.90
8226;DHT22;4154;48.810;9.012;2022-11-15T03:57:59;9.60;99.90
8226;DHT22;4154;48.810;9.012;2022-11-15T04:00:27;9.60;99.90
8226;DHT22;4154;48.810;9.012;2022-11-15T04:02:53;9.60;99.90
8226;DHT22;4154;48.810;9.012;2022-11-15T04:10:12;9.60;99.90
8226;DHT22;4154;48.810;9.012;2022-11-15T04:12:40;9.60;99.90
8226;DHT22;4154;48.810;9.012;2022-11-15T04:15:17;9.60;99.90
8226;DHT22;4154;48.810;9.012;2022-11-15T04:17:47;9.60;99.90
8226;DHT22;4154;48.810;9.012;2022-11-15T04:20:20;9.60;99.90
8226;DHT22;4154;48.810;9.012;2022-11-15T04:23:14;9.60;99.90
8226;DHT22;4154;48.810;9.012;2022-11-15T04:26:10;9.60;99.90
8226;DHT22;4154;48.810;9.012;2022-11-15T04:31:22;9.70;99.90
8226;DHT22;4154;48.810;9.012;2022-11-15T04:33:48;9.70;99.90
8226;DHT22;4154;48.810;9.012;2022-11-15T04:41:25;9.70;99.90
8226;DHT22;4154;48.810;9.012;2022-11-15T04:43:51;9.70;99.90
8226;DHT22;4154;48.810;9.012;2022-11-15T04:46:17;9.70;99.90
8226;DHT22;4154;48.810;9.012;2022-11-15T04:48:42;9.70;99.90
8226;DHT22;4154;48.810;9.012;2022-11-15T04:51:08;9.60;99.90
8226;DHT22;4154;48.810;9.012;2022-11-15T04:53:34;9.70;99.90
8226;DHT22;4154;48.810;9.012;2022-11-15T04:56:00;9.70;99.90
8226;DHT22;4154;48.810;9.012;2022-11-15T04:58:25;9.60;99.90
8226;DHT22;4154;48.810;9.012;2022-11-15T05:00:51;9.60;99.90
8226;DHT22;4154;48.810;9.012;2022-11-15T05:03:17;9.60;99.90
8226;DHT22;4154;48.810;9.012;2022-11-15T05:06:02;9.50;99.90
8226;DHT22;4154;48.810;9.012;2022-11-15T05:13:20;9.50;99.90
8226;DHT22;4154;48.810;9.012;2022-11-15T05:15:47;9.50;99.90
8226;DHT22;4154;48.810;9.012;2022-11-15T05:18:12;9.50;99.90
8226;DHT22;4154;48.810;9.012;2022-11-15T05:20:38;9.40;99.90
8226;DHT22;4154;48.810;9.012;2022-11-15T05:23:04;9.50;99.90
8226;DHT22;4154;48.810;9.012;2022-11-15T05:25:30;9.40;99.90
8226;DHT22;4154;48.810;9.012;2022-11-15T05:27:56;9.50;99.90
8226;DHT22;4154;48.810;9.012;2022-11-15T05:30:24;9.50;99.90
8226;DHT22;4154;48.810;9.012;2022-11-15T05:35:50;9.60;99.90
8226;DHT22;4154;48.810;9.012;2022-11-15T05:45:42;9.50;99.90
8226;DHT22;4154;48.810;9.012;2022-11-15T05:48:08;9.50;99.90
8226;DHT22;4154;48.810;9.012;2022-11-15T05:50:36;9.50;99.90
8226;DHT22;4154;48.810;9.012;2022-11-15T05:53:06;9.40;99.90
8226;DHT22;4154;48.810;9.012;2022-11-15T05:55:33;9.40;99.90
8226;DHT22;4154;48.810;9.012;2022-11-15T05:58:00;9.40;99.90
8226;DHT22;4154;48.810;9.012;2022-11-15T06:00:26;9.40;99.90
8226;DHT22;4154;48.810;9.012;2022-11-15T06:07:44;9.40;99.90
8226;DHT22;4154;48.810;9.012;2022-11-15T06:12:36;9.40;99.90
8226;DHT22;4154;48.810;9.012;2022-11-15T06:15:02;9.40;99.90
8226;DHT22;4154;48.810;9.012;2022-11-15T06:51:35;9.50;99.90
8226;DHT22;4154;48.810;9.012;2022-11-15T06:54:01;9.70;99.90
8226;DHT22;4154;48.810;9.012;2022-11-15T06:56:27;9.50;99.90
8226;DHT22;4154;48.810;9.012;2022-11-15T06:58:53;9.60;99.90
8226;DHT22;4154;48.810;9.012;2022-11-15T07:01:19;9.60;99.90
8226;DHT22;4154;48.810;9.012;2022-11-15T07:03:51;9.60;99.90
8226;DHT22;4154;48.810;9.012;2022-11-15T07:13:37;9.70;99.90
8226;DHT22;4154;48.810;9.012;2022-11-15T07:16:04;9.80;99.90
8226;DHT22;4154;48.810;9.012;2022-11-15T07:18:34;9.80;99.90
8226;DHT22;4154;48.810;9.012;2022-11-15T07:21:03;9.90;99.90
8226;DHT22;4154;48.810;9.012;2022-11-15T07:25:57;10.00;99.90
8226;DHT22;4154;48.810;9.012;2022-11-15T07:28:26;10.00;99.90
8226;DHT22;4154;48.810;9.012;2022-11-15T07:38:15;10.20;99.90
8226;DHT22;4154;48.810;9.012;2022-11-15T07:43:24;10.30;99.90
8226;DHT22;4154;48.810;9.012;2022-11-15T07:53:09;10.60;99.90
8226;DHT22;4154;48.810;9.012;2022-11-15T07:58:07;10.70;99.90
8226;DHT22;4154;48.810;9.012;2022-11-15T08:00:35;10.60;99.90
8226;DHT22;4154;48.810;9.012;2022-11-15T08:03:05;10.30;99.90
8226;DHT22;4154;48.810;9.012;2022-11-15T08:05:37;10.70;99.90
8226;DHT22;4154;48.810;9.012;2022-11-15T08:08:04;10.70;99.90
8226;DHT22;4154;48.810;9.012;2022-11-15T08:13:01;10.80;99.90
8226;DHT22;4154;48.810;9.012;2022-11-15T08:17:57;10.90;99.90
8226;DHT22;4154;48.810;9.012;2022-11-15T08:20:25;10.80;99.90
8226;DHT22;4154;48.810;9.012;2022-11-15T08:23:07;10.90;99.90
8226;DHT22;4154;48.810;9.012;2022-11-15T08:28:06;11.00;99.90
8226;DHT22;4154;48.810;9.012;2022-11-15T08:30:38;11.00;99.90
8226;DHT22;4154;48.810;9.012;2022-11-15T08:33:10;11.10;99.90
8226;DHT22;4154;48.810;9.012;2022-11-15T08:35:38;11.10;99.90
8226;DHT22;4154;48.810;9.012;2022-11-15T08:38:05;11.20;99.90
8226;DHT22;4154;48.810;9.012;2022-11-15T08:40:31;11.20;99.90
8226;DHT22;4154;48.810;9.012;2022-11-15T08:42:57;11.30;99.90
8226;DHT22;4154;48.810;9.012;2022-11-15T08:45:24;11.30;99.90
8226;DHT22;4154;48.810;9.012;2022-11-15T08:47:50;11.40;99.90
8226;DHT22;4154;48.810;9.012;2022-11-15T08:50:16;11.50;99.90
8226;DHT22;4154;48.810;9.012;2022-11-15T08:55:08;11.50;99.90
8226;DHT22;4154;48.810;9.012;2022-11-15T08:57:34;11.60;99.90
8226;DHT22;4154;48.810;9.012;2022-11-15T09:04:52;11.70;99.90
8226;DHT22;4154;48.810;9.012;2022-11-15T09:07:18;11.70;99.90
8226;DHT22;4154;48.810;9.012;2022-11-15T09:09:44;10.60;99.90
8226;DHT22;4154;48.810;9.012;2022-11-15T09:19:28;11.90;99.90
8226;DHT22;4154;48.810;9.012;2022-11-15T09:24:20;12.00;99.90
8226;DHT22;4154;48.810;9.012;2022-11-15T09:29:14;12.10;99.90
8226;DHT22;4154;48.810;9.012;2022-11-15T09:34:17;12.30;99.90
8226;DHT22;4154;48.810;9.012;2022-11-15T09:36:42;12.10;99.90
8226;DHT22;4154;48.810;9.012;2022-11-15T09:39:08;12.10;99.90
8226;DHT22;4154;48.810;9.012;2022-11-15T09:44:37;11.90;99.90
8226;DHT22;4154;48.810;9.012;2022-11-15T09:49:58;12.20;99.90
8226;DHT22;4154;48.810;9.012;2022-11-15T09:52:26;12.20;99.90
8226;DHT22;4154;48.810;9.012;2022-11-15T09:54:53;12.40;99.90
8226;DHT22;4154;48.810;9.012;2022-11-15T09:57:39;12.40;99.90
8226;DHT22;4154;48.810;9.012;2022-11-15T10:00:22;12.40;99.90
8226;DHT22;4154;48.810;9.012;2022-11-15T10:03:14;12.40;99.90
8226;DHT22;4154;48.810;9.012;2022-11-15T10:05:46;12.40;99.90
8226;DHT22;4154;48.810;9.012;2022-11-15T10:11:29;12.40;99.90
8226;DHT22;4154;48.810;9.012;2022-11-15T10:14:01;12.80;99.90
8226;DHT22;4154;48.810;9.012;2022-11-15T10:16:55;12.50;99.90
8226;DHT22;4154;48.810;9.012;2022-11-15T10:22:28;12.60;99.90
8226;DHT22;4154;48.810;9.012;2022-11-15T10:27:35;12.60;99.90
8226;DHT22;4154;48.810;9.012;2022-11-15T10:30:01;12.70;99.90
8226;DHT22;4154;48.810;9.012;2022-11-15T10:32:30;12.70;99.90
8226;DHT22;4154;48.810;9.012;2022-11-15T10:35:36;12.70;99.90
8226;DHT22;4154;48.810;9.012;2022-11-15T10:38:10;12.80;99.90
8226;DHT22;4154;48.810;9.012;2022-11-15T10:40:38;12.80;99.90
8226;DHT22;4154;48.810;9.012;2022-11-15T10:43:17;12.80;99.90
8226;DHT22;4154;48.810;9.012;2022-11-15T10:45:46;12.90;99.90
8226;DHT22;4154;48.810;9.012;2022-11-15T10:50:40;13.00;99.90
8226;DHT22;4154;48.810;9.012;2022-11-15T10:53:59;12.90;99.90
8226;DHT22;4154;48.810;9.012;2022-11-15T10:56:21;13.00;99.90
8226;DHT22;4154;48.810;9.012;2022-11-15T10:58:54;13.00;99.90
8226;DHT22;4154;48.810;9.012;2022-11-15T11:01:26;13.00;99.90
8226;DHT22;4154;48.810;9.012;2022-11-15T11:04:05;12.90;99.90
8226;DHT22;4154;48.810;9.012;2022-11-15T11:06:57;13.00;99.90
8226;DHT22;4154;48.810;9.012;2022-11-15T11:12:04;13.00;99.90
8226;DHT22;4154;48.810;9.012;2022-11-15T11:14:36;13.00;99.90
8226;DHT22;4154;48.810;9.012;2022-11-15T11:17:38;13.10;99.90
8226;DHT22;4154;48.810;9.012;2022-11-15T11:20:50;13.10;99.90
8226;DHT22;4154;48.810;9.012;2022-11-15T11:23:48;13.10;99.90
8226;DHT22;4154;48.810;9.012;2022-11-15T11:29:27;13.10;99.90
8226;DHT22;4154;48.810;9.012;2022-11-15T11:55:37;13.40;99.90
8226;DHT22;4154;48.810;9.012;2022-11-15T12:01:17;13.60;99.90
8226;DHT22;4154;48.810;9.012;2022-11-15T12:07:04;13.70;99.90
8226;DHT22;4154;48.810;9.012;2022-11-15T12:15:45;13.80;99.90
8226;DHT22;4154;48.810;9.012;2022-11-15T12:18:25;13.80;99.90
8226;DHT22;4154;48.810;9.012;2022-11-15T12:20:55;13.80;99.90
8226;DHT22;4154;48.810;9.012;2022-11-15T12:23:30;13.90;99.90
8226;DHT22;4154;48.810;9.012;2022-11-15T12:26:17;13.90;99.90
8226;DHT22;4154;48.810;9.012;2022-11-15T12:28:54;13.90;99.90
8226;DHT22;4154;48.810;9.012;2022-11-15T12:31:38;13.90;99.90
8226;DHT22;4154;48.810;9.012;2022-11-15T12:36:48;13.80;99.90
8226;DHT22;4154;48.810;9.012;2022-11-15T12:39:17;13.80;99.90
8226;DHT22;4154;48.810;9.012;2022-11-15T12:52:05;13.80;99.90
8226;DHT22;4154;48.810;9.012;2022-11-15T13:02:21;13.80;99.90
8226;DHT22;4154;48.810;9.012;2022-11-15T13:17:53;13.90;99.90
8226;DHT22;4154;48.810;9.012;2022-11-15T13:20:31;13.90;99.90
8226;DHT22;4154;48.810;9.012;2022-11-15T13:23:02;13.90;99.90
8226;DHT22;4154;48.810;9.012;2022-11-15T13:33:44;13.90;99.90
8226;DHT22;4154;48.810;9.012;2022-11-15T13:36:21;13.90;99.90
8226;DHT22;4154;48.810;9.012;2022-11-15T13:41:32;13.90;99.90
8226;DHT22;4154;48.810;9.012;2022-11-15T13:44:01;14.00;99.90
8226;DHT22;4154;48.810;9.012;2022-11-15T13:46:32;13.90;99.90
8226;DHT22;4154;48.810;9.012;2022-11-15T13:49:04;13.90;99.90
8226;DHT22;4154;48.810;9.012;2022-11-15T13:51:41;13.90;99.90
8226;DHT22;4154;48.810;9.012;2022-11-15T13:57:21;13.90;99.90
8226;DHT22;4154;48.810;9.012;2022-11-15T13:59:54;13.80;99.90
8226;DHT22;4154;48.810;9.012;2022-11-15T14:02:34;13.90;99.90
8226;DHT22;4154;48.810;9.012;2022-11-15T14:05:19;13.90;99.90
8226;DHT22;4154;48.810;9.012;2022-11-15T14:07:58;13.70;99.90
8226;DHT22;4154;48.810;9.012;2022-11-15T14:10:37;13.90;99.90
8226;DHT22;4154;48.810;9.012;2022-11-15T14:13:09;13.80;99.90
8226;DHT22;4154;48.810;9.012;2022-11-15T14:15:51;13.80;99.90
8226;DHT22;4154;48.810;9.012;2022-11-15T14:21:17;13.80;99.90
8226;DHT22;4154;48.810;9.012;2022-11-15T14:23:44;13.80;99.90
8226;DHT22;4154;48.810;9.012;2022-11-15T14:26:32;13.80;99.90
8226;DHT22;4154;48.810;9.012;2022-11-15T14:29:24;13.80;99.90
8226;DHT22;4154;48.810;9.012;2022-11-15T14:31:52;13.70;99.90
8226;DHT22;4154;48.810;9.012;2022-11-15T14:34:21;13.70;99.90
8226;DHT22;4154;48.810;9.012;2022-11-15T14:36:47;13.70;99.90
8226;DHT22;4154;48.810;9.012;2022-11-15T14:39:13;13.70;99.90
8226;DHT22;4154;48.810;9.012;2022-11-15T14:41:39;13.60;99.90
8226;DHT22;4154;48.810;9.012;2022-11-15T14:44:24;13.90;99.90
8226;DHT22;4154;48.810;9.012;2022-11-15T14:46:49;13.80;99.90
8226;DHT22;4154;48.810;9.012;2022-11-15T14:49:15;13.80;99.90
8226;DHT22;4154;48.810;9.012;2022-11-15T14:51:41;13.70;99.90
8226;DHT22;4154;48.810;9.012;2022-11-15T14:54:10;13.90;99.90
8226;DHT22;4154;48.810;9.012;2022-11-15T14:56:36;13.70;99.90
8226;DHT22;4154;48.810;9.012;2022-11-15T14:59:02;13.70;99.90
8226;DHT22;4154;48.810;9.012;2022-11-15T15:01:28;13.70;99.90
8226;DHT22;4154;48.810;9.012;2022-11-15T15:03:54;13.70;99.90
8226;DHT22;4154;48.810;9.012;2022-11-15T15:06:22;13.70;99.90
8226;DHT22;4154;48.810;9.012;2022-11-15T15:08:48;13.60;99.90
8226;DHT22;4154;48.810;9.012;2022-11-15T15:11:22;13.60;99.90
8226;DHT22;4154;48.810;9.012;2022-11-15T15:13:52;13.60;99.90
8226;DHT22;4154;48.810;9.012;2022-11-15T15:16:19;13.60;99.90
8226;DHT22;4154;48.810;9.012;2022-11-15T15:18:44;13.60;99.90
8226;DHT22;4154;48.810;9.012;2022-11-15T15:21:24;13.50;99.90
8226;DHT22;4154;48.810;9.012;2022-11-15T15:23:53;13.50;99.90
8226;DHT22;4154;48.810;9.012;2022-11-15T15:26:20;13.50;99.90
8226;DHT22;4154;48.810;9.012;2022-11-15T15:28:46;13.40;99.90
8226;DHT22;4154;48.810;9.012;2022-11-15T15:31:14;13.40;99.90
8226;DHT22;4154;48.810;9.012;2022-11-15T15:33:45;13.40;99.90
8226;DHT22;4154;48.810;9.012;2022-11-15T15:36:16;13.30;99.90
8226;DHT22;4154;48.810;9.012;2022-11-15T15:38:43;13.30;99.90
8226;DHT22;4154;48.810;9.012;2022-11-15T15:41:12;13.30;99.90
8226;DHT22;4154;48.810;9.012;2022-11-15T15:44:02;13.30;99.90
8226;DHT22;4154;48.810;9.012;2022-11-15T15:46:30;13.30;99.90
8226;DHT22;4154;48.810;9.012;2022-11-15T15:48:56;13.20;99.90
8226;DHT22;4154;48.810;9.012;2022-11-15T15:51:22;13.20;99.90
8226;DHT22;4154;48.810;9.012;2022-11-15T15:56:16;13.20;99.90
8226;DHT22;4154;48.810;9.012;2022-11-15T15:58:42;13.10;99.90
8226;DHT22;4154;48.810;9.012;2022-11-15T16:01:08;13.10;99.90
8226;DHT22;4154;48.810;9.012;2022-11-15T16:03:34;13.10;99.90
8226;DHT22;4154;48.810;9.012;2022-11-15T16:05:59;13.10;99.90
8226;DHT22;4154;48.810;9.012;2022-11-15T16:08:26;13.10;99.90
8226;DHT22;4154;48.810;9.012;2022-11-15T16:10:52;13.00;99.90
8226;DHT22;4154;48.810;9.012;2022-11-15T16:15:45;13.00;99.90
8226;DHT22;4154;48.810;9.012;2022-11-15T16:18:16;13.00;99.90
8226;DHT22;4154;48.810;9.012;2022-11-15T16:20:48;13.00;99.90
8226;DHT22;4154;48.810;9.012;2022-11-15T16:23:21;13.00;99.90
8226;DHT22;4154;48.810;9.012;2022-11-15T16:25:54;13.00;99.90
8226;DHT22;4154;48.810;9.012;2022-11-15T16:28:29;12.90;99.90
8226;DHT22;4154;48.810;9.012;2022-11-15T16:31:09;12.70;99.90
8226;DHT22;4154;48.810;9.012;2022-11-15T16:33:36;12.90;99.90
8226;DHT22;4154;48.810;9.012;2022-11-15T16:38:49;12.90;99.90
8226;DHT22;4154;48.810;9.012;2022-11-15T16:41:16;12.90;99.90
8226;DHT22;4154;48.810;9.012;2022-11-15T16:43:45;12.90;99.90
8226;DHT22;4154;48.810;9.012;2022-11-15T16:46:20;12.90;99.90
8226;DHT22;4154;48.810;9.012;2022-11-15T16:48:48;12.90;99.90
8226;DHT22;4154;48.810;9.012;2022-11-15T16:51:15;12.80;99.90
8226;DHT22;4154;48.810;9.012;2022-11-15T16:53:42;12.90;99.90
8226;DHT22;4154;48.810;9.012;2022-11-15T16:58:54;12.80;99.90
8226;DHT22;4154;48.810;9.012;2022-11-15T17:01:32;12.80;99.90
8226;DHT22;4154;48.810;9.012;2022-11-15T17:04:09;13.00;99.90
8226;DHT22;4154;48.810;9.012;2022-11-15T17:06:38;12.80;99.90
8226;DHT22;4154;48.810;9.012;2022-11-15T17:09:06;12.80;99.90
8226;DHT22;4154;48.810;9.012;2022-11-15T17:11:37;12.80;99.90
8226;DHT22;4154;48.810;9.012;2022-11-15T17:16:29;12.70;99.90
8226;DHT22;4154;48.810;9.012;2022-11-15T17:19:03;12.80;99.90
8226;DHT22;4154;48.810;9.012;2022-11-15T17:21:29;12.70;99.90
8226;DHT22;4154;48.810;9.012;2022-11-15T17:23:58;12.70;99.90
8226;DHT22;4154;48.810;9.012;2022-11-15T17:26:24;13.00;99.90
8226;DHT22;4154;48.810;9.012;2022-11-15T17:28:54;12.70;99.90
8226;DHT22;4154;48.810;9.012;2022-11-15T17:31:20;12.70;99.90
8226;DHT22;4154;48.810;9.012;2022-11-15T17:33:46;12.70;99.90
8226;DHT22;4154;48.810;9.012;2022-11-15T17:36:12;12.70;99.90
8226;DHT22;4154;48.810;9.012;2022-11-15T17:38:41;12.60;99.90
8226;DHT22;4154;48.810;9.012;2022-11-15T17:41:11;12.70;99.90
8226;DHT22;4154;48.810;9.012;2022-11-15T17:43:39;12.60;99.90
8226;DHT22;4154;48.810;9.012;2022-11-15T17:46:12;12.60;99.90
8226;DHT22;4154;48.810;9.012;2022-11-15T17:48:39;12.60;99.90
8226;DHT22;4154;48.810;9.012;2022-11-15T17:51:08;12.60;99.90
8226;DHT22;4154;48.810;9.012;2022-11-15T17:53:37;12.60;99.90
8226;DHT22;4154;48.810;9.012;2022-11-15T17:56:07;12.60;99.90
8226;DHT22;4154;48.810;9.012;2022-11-15T17:58:36;12.60;99.90
8226;DHT22;4154;48.810;9.012;2022-11-15T18:01:20;12.60;99.90
8226;DHT22;4154;48.810;9.012;2022-11-15T18:03:48;12.60;99.90
8226;DHT22;4154;48.810;9.012;2022-11-15T18:06:15;12.60;99.90
8226;DHT22;4154;48.810;9.012;2022-11-15T18:08:44;12.50;99.90
8226;DHT22;4154;48.810;9.012;2022-11-15T18:11:23;12.70;99.90
8226;DHT22;4154;48.810;9.012;2022-11-15T18:13:57;12.60;99.90
8226;DHT22;4154;48.810;9.012;2022-11-15T18:16:27;12.60;99.90
8226;DHT22;4154;48.810;9.012;2022-11-15T18:18:56;12.50;99.90
8226;DHT22;4154;48.810;9.012;2022-11-15T18:21:25;12.60;99.90
8226;DHT22;4154;48.810;9.012;2022-11-15T18:23:57;12.60;99.90
8226;DHT22;4154;48.810;9.012;2022-11-15T18:26:26;12.50;99.90
8226;DHT22;4154;48.810;9.012;2022-11-15T18:28:55;12.60;99.90
8226;DHT22;4154;48.810;9.012;2022-11-15T18:31:25;12.50;99.90
8226;DHT22;4154;48.810;9.012;2022-11-15T18:36:24;12.60;99.90
8226;DHT22;4154;48.810;9.012;2022-11-15T18:38:59;12.60;99.90
8226;DHT22;4154;48.810;9.012;2022-11-15T18:41:27;12.60;99.90
8226;DHT22;4154;48.810;9.012;2022-11-15T18:43:54;12.60;99.90
8226;DHT22;4154;48.810;9.012;2022-11-15T18:46:23;12.60;99.90
8226;DHT22;4154;48.810;9.012;2022-11-15T18:48:51;12.60;99.90
8226;DHT22;4154;48.810;9.012;2022-11-15T18:51:23;12.50;99.90
8226;DHT22;4154;48.810;9.012;2022-11-15T18:53:54;12.60;99.90
8226;DHT22;4154;48.810;9.012;2022-11-15T18:56:24;12.60;99.90
8226;DHT22;4154;48.810;9.012;2022-11-15T18:58:57;12.50;99.90
8226;DHT22;4154;48.810;9.012;2022-11-15T19:01:26;12.50;99.90
8226;DHT22;4154;48.810;9.012;2022-11-15T19:03:56;12.50;99.90
8226;DHT22;4154;48.810;9.012;2022-11-15T19:06:27;12.50;99.90
8226;DHT22;4154;48.810;9.012;2022-11-15T19:08:56;12.50;99.90
8226;DHT22;4154;48.810;9.012;2022-11-15T19:11:26;12.50;99.90
8226;DHT22;4154;48.810;9.012;2022-11-15T19:13:57;12.40;99.90
8226;DHT22;4154;48.810;9.012;2022-11-15T19:16:26;12.40;99.90
8226;DHT22;4154;48.810;9.012;2022-11-15T19:18:57;12.40;99.90
8226;DHT22;4154;48.810;9.012;2022-11-15T19:21:25;12.40;99.90
8226;DHT22;4154;48.810;9.012;2022-11-15T19:23:52;12.40;99.90
8226;DHT22;4154;48.810;9.012;2022-11-15T19:26:19;12.40;99.90
8226;DHT22;4154;48.810;9.012;2022-11-15T19:28:53;12.40;99.90
8226;DHT22;4154;48.810;9.012;2022-11-15T19:31:22;12.40;99.90
8226;DHT22;4154;48.810;9.012;2022-11-15T19:33:49;12.40;99.90
8226;DHT22;4154;48.810;9.012;2022-11-15T19:36:28;12.40;99.90
8226;DHT22;4154;48.810;9.012;2022-11-15T19:38:59;12.40;99.90
8226;DHT22;4154;48.810;9.012;2022-11-15T19:41:29;12.40;99.90
8226;DHT22;4154;48.810;9.012;2022-11-15T19:43:58;12.40;99.90
8226;DHT22;4154;48.810;9.012;2022-11-15T19:46:24;12.40;99.90
8226;DHT22;4154;48.810;9.012;2022-11-15T19:48:51;12.40;99.90
8226;DHT22;4154;48.810;9.012;2022-11-15T19:51:27;12.40;99.90
8226;DHT22;4154;48.810;9.012;2022-11-15T19:53:57;12.40;99.90
8226;DHT22;4154;48.810;9.012;2022-11-15T19:56:25;12.40;99.90
8226;DHT22;4154;48.810;9.012;2022-11-15T19:58:53;12.30;99.90
8226;DHT22;4154;48.810;9.012;2022-11-15T20:01:26;12.30;99.90
8226;DHT22;4154;48.810;9.012;2022-11-15T20:03:54;12.40;99.90
8226;DHT22;4154;48.810;9.012;2022-11-15T20:06:30;12.40;99.90
8226;DHT22;4154;48.810;9.012;2022-11-15T20:08:58;12.30;99.90
8226;DHT22;4154;48.810;9.012;2022-11-15T20:11:24;12.30;99.90
8226;DHT22;4154;48.810;9.012;2022-11-15T20:13:54;12.30;99.90
8226;DHT22;4154;48.810;9.012;2022-11-15T20:16:22;12.30;99.90
8226;DHT22;4154;48.810;9.012;2022-11-15T20:18:49;12.30;99.90
8226;DHT22;4154;48.810;9.012;2022-11-15T20:21:16;12.30;99.90
8226;DHT22;4154;48.810;9.012;2022-11-15T20:23:42;12.30;99.90
8226;DHT22;4154;48.810;9.012;2022-11-15T20:26:09;12.30;99.90
8226;DHT22;4154;48.810;9.012;2022-11-15T20:28:38;12.20;99.90
8226;DHT22;4154;48.810;9.012;2022-11-15T20:31:05;12.30;99.90
8226;DHT22;4154;48.810;9.012;2022-11-15T20:33:39;12.30;99.90
8226;DHT22;4154;48.810;9.012;2022-11-15T20:36:25;12.20;99.90
8226;DHT22;4154;48.810;9.012;2022-11-15T20:44:04;12.20;99.90
8226;DHT22;4154;48.810;9.012;2022-11-15T20:46:47;12.20;99.90
8226;DHT22;4154;48.810;9.012;2022-11-15T20:49:21;12.20;99.90
8226;DHT22;4154;48.810;9.012;2022-11-15T20:52:21;12.20;99.90
8226;DHT22;4154;48.810;9.012;2022-11-15T20:55:30;12.20;99.90
8226;DHT22;4154;48.810;9.012;2022-11-15T20:58:14;12.20;99.90
8226;DHT22;4154;48.810;9.012;2022-11-15T21:00:46;12.10;99.90
8226;DHT22;4154;48.810;9.012;2022-11-15T21:03:30;12.10;99.90
8226;DHT22;4154;48.810;9.012;2022-11-15T21:06:50;12.00;99.90
8226;DHT22;4154;48.810;9.012;2022-11-15T21:13:25;12.00;99.90
8226;DHT22;4154;48.810;9.012;2022-11-15T21:16:07;12.00;99.90
8226;DHT22;4154;48.810;9.012;2022-11-15T21:18:43;12.00;99.90
8226;DHT22;4154;48.810;9.012;2022-11-15T21:24:41;12.00;99.90
8226;DHT22;4154;48.810;9.012;2022-11-15T21:27:25;11.90;99.90
8226;DHT22;4154;48.810;9.012;2022-11-15T21:30:27;11.90;99.90
8226;DHT22;4154;48.810;9.012;2022-11-15T21:36:16;11.90;99.90
8226;DHT22;4154;48.810;9.012;2022-11-15T21:44:26;11.90;99.90
8226;DHT22;4154;48.810;9.012;2022-11-15T21:59:48;11.50;99.90
8226;DHT22;4154;48.810;9.012;2022-11-15T22:02:38;11.90;99.90
8226;DHT22;4154;48.810;9.012;2022-11-15T22:08:00;11.90;99.90
8226;DHT22;4154;48.810;9.012;2022-11-15T22:17:45;11.90;99.90
8226;DHT22;4154;48.810;9.012;2022-11-15T22:20:24;11.90;99.90
8226;DHT22;4154;48.810;9.012;2022-11-15T22:22:50;11.70;99.90
8226;DHT22;4154;48.810;9.012;2022-11-15T22:25:24;11.80;99.90
8226;DHT22;4154;48.810;9.012;2022-11-15T22:27:56;11.80;99.90
8226;DHT22;4154;48.810;9.012;2022-11-15T22:33:00;11.80;99.90
8226;DHT22;4154;48.810;9.012;2022-11-15T22:40:21;11.70;99.90
8226;DHT22;4154;48.810;9.012;2022-11-15T22:47:39;11.70;99.90
8226;DHT22;4154;48.810;9.012;2022-11-15T22:50:05;11.70;99.90
8226;DHT22;4154;48.810;9.012;2022-11-15T22:57:24;11.30;99.90
8226;DHT22;4154;48.810;9.012;2022-11-15T22:59:50;11.60;99.90
8226;DHT22;4154;48.810;9.012;2022-11-15T23:02:18;11.60;99.90